Time;durP1;ratioP1;P1;durP2;ratioP2;P2;SDS_P1;SDS_P2;PMS_P1;PMS_P2;Temp;Humidity;BMP_temperature;BMP_pressure;BME280_temperature;BME280_humidity;BME280_pressure;Samples;Min_cycle;Max_cycle;Signal;HPM_P1;HPM_P2
2021/08/16 00:00:17;;;;;;;0.00;0.00;;;17.50;99.90;;;;;;5049309;28;20431;-89
2021/08/16 00:03:04;;;;;;;0.00;0.00;;;17.50;99.90;;;;;;5050019;28;20049;-88
2021/08/16 00:05:51;;;;;;;0.00;0.00;;;17.40;99.90;;;;;;5047869;28;20041;-89
2021/08/16 00:08:38;;;;;;;0.00;0.00;;;17.40;99.90;;;;;;5049682;28;20146;-88
2021/08/16 00:11:26;;;;;;;0.00;0.00;;;17.40;99.90;;;;;;5051886;28;20129;-87
2021/08/16 00:14:13;;;;;;;0.00;0.00;;;17.30;99.90;;;;;;5051000;28;20116;-88
2021/08/16 00:17:02;;;;;;;0.00;0.00;;;17.20;99.90;;;;;;5045072;28;20579;-89
2021/08/16 00:19:49;;;;;;;0.00;0.00;;;17.60;99.90;;;;;;5044276;28;20037;-88
2021/08/16 00:22:36;;;;;;;0.00;0.00;;;17.30;99.90;;;;;;5045251;28;20047;-88
2021/08/16 00:25:23;;;;;;;0.00;0.00;;;17.30;99.90;;;;;;5049880;28;20053;-89
2021/08/16 00:28:10;;;;;;;0.00;0.00;;;17.30;99.90;;;;;;5051417;28;20463;-88
2021/08/16 00:30:57;;;;;;;0.05;0.05;;;17.20;99.90;;;;;;5047932;28;20045;-88
2021/08/16 00:33:46;;;;;;;0.00;0.00;;;17.20;99.90;;;;;;5050387;28;20354;-88
2021/08/16 00:36:33;;;;;;;0.00;0.00;;;17.20;99.90;;;;;;5041718;28;20493;-90
2021/08/16 00:39:21;;;;;;;0.00;0.00;;;17.20;99.90;;;;;;5013007;28;1044449;-88
2021/08/16 00:42:09;;;;;;;0.00;0.00;;;17.20;99.90;;;;;;5048677;28;20123;-89
2021/08/16 00:44:56;;;;;;;0.00;0.00;;;17.20;99.90;;;;;;5045176;28;20504;-89
2021/08/16 00:47:43;;;;;;;0.00;0.00;;;17.20;99.90;;;;;;5051224;28;20051;-89
2021/08/16 00:50:32;;;;;;;0.00;0.00;;;17.30;99.90;;;;;;5045914;28;20048;-88
2021/08/16 00:53:19;;;;;;;0.00;0.00;;;17.40;99.90;;;;;;5049694;28;20056;-89
2021/08/16 00:56:07;;;;;;;0.00;0.00;;;17.40;99.90;;;;;;5074566;22;20455;-84
2021/08/16 00:58:56;;;;;;;0.00;0.00;;;17.30;99.90;;;;;;5034811;28;20040;-84
2021/08/16 01:01:43;;;;;;;0.00;0.00;;;17.40;99.90;;;;;;5035791;28;20052;-82
2021/08/16 01:04:31;;;;;;;0.00;0.00;;;17.40;99.90;;;;;;5034557;28;20045;-84
2021/08/16 01:07:19;;;;;;;0.00;0.00;;;17.30;99.90;;;;;;5036714;28;20049;-84
2021/08/16 01:10:08;;;;;;;0.00;0.00;;;17.40;99.90;;;;;;5039159;28;20147;-84
2021/08/16 01:12:56;;;;;;;0.00;0.00;;;17.30;99.90;;;;;;5049959;28;20049;-83
2021/08/16 01:15:53;;;;;;;0.00;0.00;;;17.30;99.90;;;;;;5035607;28;20055;-84
2021/08/16 01:18:40;;;;;;;0.00;0.00;;;17.20;99.90;;;;;;5032017;28;20036;-83
2021/08/16 01:21:27;;;;;;;0.00;0.00;;;17.20;99.90;;;;;;5027883;28;20529;-82
2021/08/16 01:24:17;;;;;;;0.00;0.00;;;17.30;99.90;;;;;;5042264;28;20312;-84
2021/08/16 01:27:08;;;;;;;0.00;0.00;;;17.30;99.90;;;;;;5034523;28;20037;-83
2021/08/16 01:29:56;;;;;;;0.00;0.00;;;17.30;99.90;;;;;;5036017;28;20147;-83
2021/08/16 01:32:43;;;;;;;0.00;0.00;;;17.20;99.90;;;;;;5030608;28;20122;-84
2021/08/16 01:35:30;;;;;;;0.00;0.00;;;17.20;99.90;;;;;;5029008;28;20055;-81
2021/08/16 01:38:18;;;;;;;0.00;0.00;;;17.10;99.90;;;;;;5031279;28;20053;-84
2021/08/16 01:41:05;;;;;;;0.00;0.00;;;17.20;99.90;;;;;;5038822;28;20102;-82
2021/08/16 01:43:54;;;;;;;0.00;0.00;;;17.10;99.90;;;;;;5036878;28;20120;-84
2021/08/16 01:46:41;;;;;;;0.00;0.00;;;17.10;99.90;;;;;;5030936;28;20041;-85
2021/08/16 01:49:28;;;;;;;0.00;0.00;;;16.90;99.90;;;;;;5032388;28;20045;-84
2021/08/16 01:52:15;;;;;;;0.00;0.00;;;16.80;99.90;;;;;;5031997;28;20150;-83
2021/08/16 01:55:06;;;;;;;0.00;0.00;;;16.80;99.90;;;;;;5034901;28;20547;-83
2021/08/16 01:57:53;;;;;;;0.00;0.00;;;16.80;99.90;;;;;;5036658;28;20110;-84
2021/08/16 02:00:42;;;;;;;0.00;0.00;;;16.70;99.90;;;;;;5036961;28;20041;-84
2021/08/16 02:03:30;;;;;;;0.00;0.00;;;16.70;99.90;;;;;;5035651;28;20052;-79
2021/08/16 02:06:17;;;;;;;0.00;0.00;;;16.70;99.90;;;;;;5036435;28;20512;-84
2021/08/16 02:09:05;;;;;;;0.00;0.00;;;16.40;99.90;;;;;;5027255;28;20062;-82
2021/08/16 02:11:52;;;;;;;0.00;0.00;;;16.40;99.90;;;;;;5030560;28;20044;-84
2021/08/16 02:14:39;;;;;;;0.00;0.00;;;16.30;99.90;;;;;;5048708;28;20040;-84
2021/08/16 02:17:27;;;;;;;0.00;0.00;;;16.30;99.90;;;;;;5035816;28;20504;-84
2021/08/16 02:20:15;;;;;;;0.00;0.00;;;16.20;99.90;;;;;;5032243;28;20045;-85
2021/08/16 02:23:02;;;;;;;0.00;0.00;;;16.10;99.90;;;;;;5033610;28;20045;-83
2021/08/16 02:25:49;;;;;;;0.00;0.00;;;16.00;99.90;;;;;;5045770;28;20051;-84
2021/08/16 02:28:36;;;;;;;0.00;0.00;;;16.00;99.90;;;;;;5028550;28;20037;-83
2021/08/16 02:31:23;;;;;;;0.00;0.00;;;16.00;99.90;;;;;;5027892;28;20037;-84
2021/08/16 02:34:12;;;;;;;0.00;0.00;;;16.00;99.90;;;;;;5033617;28;20051;-84
2021/08/16 02:36:59;;;;;;;0.00;0.00;;;15.90;99.90;;;;;;5036959;28;20053;-83
2021/08/16 02:39:46;;;;;;;0.00;0.00;;;15.90;99.90;;;;;;5044087;28;20071;-84
2021/08/16 02:42:34;;;;;;;0.00;0.00;;;15.80;99.90;;;;;;5046233;28;20075;-83
2021/08/16 02:45:21;;;;;;;0.00;0.00;;;15.80;99.90;;;;;;5036864;28;20063;-83
2021/08/16 02:48:08;;;;;;;0.00;0.00;;;15.80;99.90;;;;;;5036130;28;20124;-84
2021/08/16 02:50:57;;;;;;;0.00;0.00;;;15.80;99.90;;;;;;5037987;28;20098;-84
2021/08/16 02:53:44;;;;;;;0.00;0.00;;;15.80;99.90;;;;;;5049461;28;20157;-83
2021/08/16 02:56:31;;;;;;;0.00;0.00;;;15.90;99.90;;;;;;5050167;28;20124;-83
2021/08/16 02:59:18;;;;;;;0.00;0.00;;;15.90;99.90;;;;;;5025560;28;20561;-84
2021/08/16 03:02:05;;;;;;;0.00;0.00;;;15.90;99.90;;;;;;5032252;28;20037;-81
2021/08/16 03:04:53;;;;;;;0.00;0.00;;;15.80;99.90;;;;;;5036965;28;20045;-84
2021/08/16 03:07:42;;;;;;;0.00;0.00;;;15.80;99.90;;;;;;5032653;28;20127;-83
2021/08/16 03:10:29;;;;;;;0.00;0.00;;;15.90;99.90;;;;;;5029574;28;20046;-84
2021/08/16 03:13:16;;;;;;;0.00;0.00;;;15.80;99.90;;;;;;5038970;28;20109;-81
2021/08/16 03:16:03;;;;;;;0.00;0.00;;;15.80;99.90;;;;;;5035569;28;20110;-84
2021/08/16 03:18:50;;;;;;;0.00;0.00;;;15.80;99.90;;;;;;5046200;28;20053;-83
2021/08/16 03:21:37;;;;;;;0.00;0.00;;;15.70;99.90;;;;;;5034881;28;20049;-83
2021/08/16 03:24:27;;;;;;;0.00;0.00;;;15.60;99.90;;;;;;5051585;28;20072;-84
2021/08/16 03:27:14;;;;;;;0.00;0.00;;;15.60;99.90;;;;;;5036306;28;20115;-84
2021/08/16 03:30:04;;;;;;;0.00;0.00;;;15.50;99.90;;;;;;5031844;28;20068;-83
2021/08/16 03:32:51;;;;;;;0.00;0.00;;;15.50;99.90;;;;;;5051348;28;20182;-83
2021/08/16 03:35:38;;;;;;;0.00;0.00;;;15.40;99.90;;;;;;5033036;28;20049;-83
2021/08/16 03:38:25;;;;;;;0.00;0.00;;;15.40;99.90;;;;;;5041195;28;20045;-81
2021/08/16 03:41:14;;;;;;;0.00;0.00;;;15.40;99.90;;;;;;5038567;28;20049;-84
2021/08/16 03:44:01;;;;;;;0.00;0.00;;;15.40;99.90;;;;;;5044737;28;20052;-84
2021/08/16 03:46:48;;;;;;;0.00;0.00;;;15.40;99.90;;;;;;5036770;28;20048;-83
2021/08/16 03:49:35;;;;;;;0.00;0.00;;;15.30;99.90;;;;;;5035718;28;20041;-83
2021/08/16 03:52:23;;;;;;;0.00;0.00;;;15.20;99.90;;;;;;5042347;28;20569;-84
2021/08/16 03:55:10;;;;;;;0.00;0.00;;;15.40;99.90;;;;;;5040269;28;20167;-83
2021/08/16 03:57:58;;;;;;;0.00;0.00;;;15.50;99.90;;;;;;5030858;28;20489;-82
2021/08/16 04:00:45;;;;;;;0.00;0.00;;;15.50;99.90;;;;;;5037928;28;20095;-84
2021/08/16 04:03:33;;;;;;;0.00;0.00;;;15.40;99.90;;;;;;5033069;28;20056;-82
2021/08/16 04:06:20;;;;;;;0.00;0.00;;;15.60;99.90;;;;;;5045845;28;20136;-78
2021/08/16 04:09:07;;;;;;;0.00;0.00;;;15.70;99.90;;;;;;5038150;28;20116;-84
2021/08/16 04:11:54;;;;;;;0.00;0.00;;;15.70;99.90;;;;;;5057655;28;20049;-84
2021/08/16 04:14:43;;;;;;;0.00;0.00;;;15.70;99.90;;;;;;5055824;28;20119;-83
2021/08/16 04:17:30;;;;;;;0.00;0.00;;;15.70;99.90;;;;;;5042888;28;20037;-84
2021/08/16 04:20:18;;;;;;;0.00;0.00;;;15.80;99.90;;;;;;5039165;28;20045;-84
2021/08/16 04:23:05;;;;;;;0.00;0.00;;;15.70;99.90;;;;;;5041954;28;20059;-84
2021/08/16 04:25:52;;;;;;;0.00;0.00;;;15.70;99.90;;;;;;5023578;28;20045;-82
2021/08/16 04:28:39;;;;;;;0.00;0.00;;;15.70;99.90;;;;;;5053513;28;20124;-84
2021/08/16 04:31:28;;;;;;;0.00;0.00;;;15.80;99.90;;;;;;5041681;28;20045;-83
2021/08/16 04:34:20;;;;;;;0.00;0.00;;;15.80;99.90;;;;;;5050045;28;20099;-84
2021/08/16 04:37:07;;;;;;;0.00;0.00;;;15.80;99.90;;;;;;5040106;28;20500;-83
2021/08/16 04:39:54;;;;;;;0.00;0.00;;;15.80;99.90;;;;;;5040408;28;20051;-84
2021/08/16 04:42:41;;;;;;;0.00;0.00;;;15.80;99.90;;;;;;5041094;28;20053;-85
2021/08/16 04:45:29;;;;;;;0.00;0.00;;;15.80;99.90;;;;;;5055100;28;20131;-84
2021/08/16 04:48:18;;;;;;;0.00;0.00;;;15.90;99.90;;;;;;5054254;28;20041;-84
2021/08/16 04:51:05;;;;;;;0.00;0.00;;;15.90;99.90;;;;;;5041345;28;20048;-83
2021/08/16 04:53:52;;;;;;;0.00;0.00;;;15.80;99.90;;;;;;5049094;28;20370;-84
2021/08/16 04:56:39;;;;;;;0.00;0.00;;;15.90;99.90;;;;;;5052086;28;20045;-84
2021/08/16 04:59:26;;;;;;;0.00;0.00;;;16.00;99.90;;;;;;5045246;28;20045;-81
2021/08/16 05:02:13;;;;;;;0.10;0.10;;;16.00;99.90;;;;;;5035738;28;20060;-84
2021/08/16 05:05:08;;;;;;;0.00;0.00;;;15.90;99.90;;;;;;5035989;28;20578;-86
2021/08/16 05:07:57;;;;;;;0.00;0.00;;;15.90;99.90;;;;;;5047558;28;20087;-86
2021/08/16 05:10:46;;;;;;;0.00;0.00;;;15.90;99.90;;;;;;5035911;28;20605;-85
2021/08/16 05:13:33;;;;;;;0.00;0.00;;;15.90;99.90;;;;;;5043658;28;20529;-82
2021/08/16 05:16:23;;;;;;;0.00;0.00;;;15.90;99.90;;;;;;5046498;28;20049;-84
2021/08/16 05:19:11;;;;;;;0.00;0.00;;;15.90;99.90;;;;;;5038068;28;20041;-82
2021/08/16 05:22:05;;;;;;;0.00;0.00;;;15.90;99.90;;;;;;5048127;28;20041;-83
2021/08/16 05:24:52;;;;;;;0.00;0.00;;;15.90;99.90;;;;;;5037031;28;20408;-83
2021/08/16 05:27:40;;;;;;;0.00;0.00;;;15.90;99.90;;;;;;5025704;28;20041;-81
2021/08/16 05:30:27;;;;;;;0.00;0.00;;;15.90;99.90;;;;;;5028687;28;20049;-84
2021/08/16 05:33:15;;;;;;;0.00;0.00;;;15.80;99.90;;;;;;5030245;28;20047;-84
2021/08/16 05:36:02;;;;;;;0.00;0.00;;;15.90;99.90;;;;;;5031989;28;20106;-83
2021/08/16 05:38:51;;;;;;;0.00;0.00;;;15.90;99.90;;;;;;5039176;28;20517;-81
2021/08/16 05:41:38;;;;;;;0.00;0.00;;;16.00;99.90;;;;;;5038683;28;20114;-83
2021/08/16 05:44:25;;;;;;;0.00;0.00;;;16.20;99.90;;;;;;5049508;28;20076;-84
2021/08/16 05:47:12;;;;;;;0.00;0.00;;;16.20;99.90;;;;;;5030181;28;20044;-84
2021/08/16 05:50:00;;;;;;;0.00;0.00;;;16.20;99.90;;;;;;5030346;28;20401;-84
2021/08/16 05:52:47;;;;;;;0.00;0.00;;;16.20;99.90;;;;;;5032199;28;20041;-85
2021/08/16 05:55:36;;;;;;;0.00;0.00;;;16.20;99.90;;;;;;5037010;28;20051;-85
2021/08/16 05:58:23;;;;;;;0.00;0.00;;;16.10;99.90;;;;;;5038517;28;20071;-81
2021/08/16 06:01:10;;;;;;;0.00;0.00;;;16.10;99.90;;;;;;5028368;28;20110;-84
2021/08/16 06:03:57;;;;;;;0.00;0.00;;;16.20;99.90;;;;;;5040238;28;20049;-83
2021/08/16 06:06:45;;;;;;;0.00;0.00;;;17.20;99.90;;;;;;5036621;28;20077;-85
2021/08/16 06:09:32;;;;;;;0.00;0.00;;;16.30;99.90;;;;;;5031470;28;20052;-82
2021/08/16 06:12:20;;;;;;;0.00;0.00;;;16.30;99.90;;;;;;5030003;28;20051;-83
2021/08/16 06:15:08;;;;;;;0.00;0.00;;;16.30;99.90;;;;;;5039918;28;20041;-84
2021/08/16 06:17:55;;;;;;;0.00;0.00;;;16.40;99.90;;;;;;5047189;28;20132;-79
2021/08/16 06:20:42;;;;;;;0.00;0.00;;;16.40;99.90;;;;;;5045050;28;20123;-82
2021/08/16 06:23:29;;;;;;;0.00;0.00;;;16.40;99.90;;;;;;5035192;28;20536;-82
2021/08/16 06:26:18;;;;;;;0.00;0.00;;;16.50;99.90;;;;;;5032856;28;20045;-85
2021/08/16 06:29:07;;;;;;;0.00;0.00;;;16.50;99.90;;;;;;5048652;28;20037;-81
2021/08/16 06:31:54;;;;;;;0.00;0.00;;;16.60;99.90;;;;;;5032413;28;20509;-84
2021/08/16 06:34:42;;;;;;;0.00;0.00;;;16.70;99.90;;;;;;5032157;28;20040;-84
2021/08/16 06:37:30;;;;;;;0.00;0.00;;;16.80;99.90;;;;;;5024247;28;20049;-85
2021/08/16 06:40:17;;;;;;;0.00;0.00;;;16.90;99.90;;;;;;5045668;28;20049;-83
2021/08/16 06:43:05;;;;;;;0.00;0.00;;;16.90;99.90;;;;;;5029691;28;20045;-85
2021/08/16 06:45:53;;;;;;;0.00;0.00;;;17.00;99.90;;;;;;5031600;28;20382;-85
2021/08/16 06:48:41;;;;;;;0.00;0.00;;;17.10;99.90;;;;;;5035858;28;20041;-84
2021/08/16 06:51:28;;;;;;;0.00;0.00;;;17.10;99.90;;;;;;5030201;28;20042;-82
2021/08/16 06:54:15;;;;;;;0.00;0.00;;;17.00;99.90;;;;;;5047524;28;20561;-84
2021/08/16 06:57:16;;;;;;;0.00;0.00;;;16.90;99.90;;;;;;5045603;28;20418;-84
2021/08/16 07:00:05;;;;;;;0.00;0.00;;;17.00;99.90;;;;;;5035558;28;20179;-85
2021/08/16 07:02:53;;;;;;;0.00;0.00;;;17.10;99.90;;;;;;5027842;28;20057;-85
2021/08/16 07:05:41;;;;;;;0.00;0.00;;;17.20;99.90;;;;;;5052027;28;20053;-86
2021/08/16 07:08:28;;;;;;;0.00;0.00;;;17.30;99.90;;;;;;5035991;28;20060;-85
2021/08/16 07:11:16;;;;;;;0.00;0.00;;;17.40;99.90;;;;;;5055715;28;20044;-85
2021/08/16 07:14:03;;;;;;;0.00;0.00;;;17.50;99.90;;;;;;5057293;28;20374;-85
2021/08/16 07:16:50;;;;;;;0.00;0.00;;;17.80;99.90;;;;;;5033231;28;20045;-83
2021/08/16 07:19:39;;;;;;;0.00;0.00;;;17.70;99.90;;;;;;5028846;28;20833;-83
2021/08/16 07:22:26;;;;;;;0.00;0.00;;;18.00;99.90;;;;;;5039738;28;20040;-82
2021/08/16 07:25:13;;;;;;;0.00;0.00;;;18.00;99.90;;;;;;5036123;28;20128;-86
2021/08/16 07:28:00;;;;;;;0.00;0.00;;;18.10;99.90;;;;;;5029774;28;20127;-83
2021/08/16 07:30:48;;;;;;;0.00;0.00;;;18.30;99.90;;;;;;5037797;28;20196;-86
2021/08/16 07:33:35;;;;;;;0.00;0.00;;;18.40;99.90;;;;;;5035927;28;20132;-85
2021/08/16 07:36:23;;;;;;;0.00;0.00;;;18.60;99.90;;;;;;5040233;28;20120;-86
2021/08/16 07:39:10;;;;;;;0.00;0.00;;;18.70;99.90;;;;;;5036605;28;20446;-87
2021/08/16 07:41:57;;;;;;;0.00;0.00;;;18.90;99.90;;;;;;5047536;28;20048;-86
2021/08/16 07:44:44;;;;;;;0.00;0.00;;;18.80;99.90;;;;;;5033093;28;20049;-84
2021/08/16 07:47:32;;;;;;;0.00;0.00;;;18.90;99.90;;;;;;5039332;28;20524;-85
2021/08/16 07:50:19;;;;;;;0.00;0.00;;;19.00;99.90;;;;;;5044580;28;20119;-86
2021/08/16 07:53:08;;;;;;;0.00;0.00;;;19.00;99.90;;;;;;5032636;28;20045;-78
2021/08/16 07:55:58;;;;;;;0.00;0.00;;;19.00;99.90;;;;;;5035382;28;20045;-86
2021/08/16 07:58:46;;;;;;;0.00;0.00;;;19.10;99.90;;;;;;5040661;28;20106;-85
2021/08/16 08:01:33;;;;;;;0.00;0.00;;;19.20;99.90;;;;;;5055513;28;20499;-85
2021/08/16 08:04:20;;;;;;;0.00;0.00;;;19.10;99.90;;;;;;5036309;28;20041;-79
2021/08/16 08:07:07;;;;;;;0.00;0.00;;;19.00;99.90;;;;;;5031526;28;20096;-86
2021/08/16 08:09:56;;;;;;;0.00;0.00;;;19.00;99.90;;;;;;5050732;28;20044;-82
2021/08/16 08:12:44;;;;;;;0.00;0.00;;;18.90;99.90;;;;;;5040334;28;20102;-85
2021/08/16 08:15:31;;;;;;;0.00;0.00;;;19.10;99.90;;;;;;5035223;28;20049;-82
2021/08/16 08:18:18;;;;;;;0.00;0.00;;;19.20;99.90;;;;;;5034882;28;20547;-85
2021/08/16 08:21:05;;;;;;;0.00;0.00;;;19.30;99.90;;;;;;5030625;28;20048;-82
2021/08/16 08:23:52;;;;;;;0.00;0.00;;;19.40;99.90;;;;;;5033233;28;20052;-86
2021/08/16 08:26:41;;;;;;;0.00;0.00;;;19.30;99.90;;;;;;5044996;28;20136;-84
2021/08/16 08:29:28;;;;;;;0.00;0.00;;;19.40;99.90;;;;;;5036200;28;20059;-85
2021/08/16 08:32:15;;;;;;;0.03;0.03;;;19.30;99.90;;;;;;5037110;28;20095;-86
2021/08/16 08:35:02;;;;;;;0.00;0.00;;;19.40;99.90;;;;;;5037041;28;20045;-85
2021/08/16 08:37:50;;;;;;;0.00;0.00;;;19.60;99.90;;;;;;5029439;28;20115;-86
2021/08/16 08:40:40;;;;;;;0.00;0.00;;;19.70;99.90;;;;;;5036024;28;20118;-82
2021/08/16 08:43:29;;;;;;;0.00;0.00;;;20.40;99.90;;;;;;5053086;28;20052;-85
2021/08/16 08:46:18;;;;;;;0.00;0.00;;;19.90;99.90;;;;;;5036123;28;20049;-86
2021/08/16 08:49:07;;;;;;;0.00;0.00;;;19.70;99.90;;;;;;5043146;28;20037;-82
2021/08/16 08:51:55;;;;;;;0.00;0.00;;;19.80;99.90;;;;;;5034485;28;20417;-84
2021/08/16 08:54:42;;;;;;;0.00;0.00;;;19.60;99.90;;;;;;5051495;28;20048;-86
2021/08/16 08:57:49;;;;;;;0.00;0.00;;;19.60;99.90;;;;;;5035436;28;20398;-86
2021/08/16 09:00:38;;;;;;;0.00;0.00;;;19.50;99.90;;;;;;5053466;28;20506;-86
2021/08/16 09:03:25;;;;;;;0.00;0.00;;;19.30;99.90;;;;;;5042059;28;20041;-83
2021/08/16 09:06:16;;;;;;;0.00;0.00;;;19.40;99.90;;;;;;5036692;28;20048;-86
2021/08/16 09:09:04;;;;;;;0.00;0.00;;;19.50;99.90;;;;;;5035939;28;20051;-86
2021/08/16 09:11:53;;;;;;;0.00;0.00;;;19.50;99.90;;;;;;5032309;28;20044;-83
2021/08/16 09:14:46;;;;;;;0.00;0.00;;;19.30;99.90;;;;;;5038739;28;20079;-86
2021/08/16 09:17:34;;;;;;;0.00;0.00;;;19.50;99.90;;;;;;5035752;28;20275;-86
2021/08/16 09:20:23;;;;;;;0.00;0.00;;;19.50;99.90;;;;;;5037087;28;20076;-85
2021/08/16 09:23:14;;;;;;;0.00;0.00;;;19.60;99.90;;;;;;5037073;28;20052;-85
2021/08/16 09:26:03;;;;;;;0.00;0.00;;;19.70;99.90;;;;;;5037672;28;20090;-86
2021/08/16 09:28:51;;;;;;;0.00;0.00;;;19.70;99.90;;;;;;5026179;28;20040;-84
2021/08/16 09:31:53;;;;;;;0.00;0.00;;;19.80;99.90;;;;;;5037596;28;20118;-86
2021/08/16 09:34:49;;;;;;;0.00;0.00;;;19.80;99.90;;;;;;5034518;28;20049;-86
2021/08/16 09:37:36;;;;;;;0.00;0.00;;;19.90;99.90;;;;;;5027087;28;20124;-84
2021/08/16 09:40:23;;;;;;;0.00;0.00;;;20.00;99.90;;;;;;5023946;28;20428;-86
2021/08/16 09:43:10;;;;;;;0.00;0.00;;;19.90;99.90;;;;;;5029044;28;20410;-85
2021/08/16 09:45:57;;;;;;;0.00;0.00;;;19.70;99.90;;;;;;5035127;28;20044;-86
2021/08/16 09:48:55;;;;;;;0.00;0.00;;;19.80;99.90;;;;;;5035842;28;20045;-86
2021/08/16 09:51:44;;;;;;;0.00;0.00;;;21.00;99.90;;;;;;5029680;28;20044;-84
2021/08/16 09:54:32;;;;;;;0.00;0.00;;;20.20;99.90;;;;;;5026663;28;20094;-85
2021/08/16 09:57:21;;;;;;;0.00;0.00;;;20.50;99.90;;;;;;5036511;28;20044;-82
2021/08/16 10:00:09;;;;;;;0.00;0.00;;;20.70;99.90;;;;;;5031843;28;20581;-86
2021/08/16 10:02:57;;;;;;;0.00;0.00;;;20.70;99.90;;;;;;5036223;28;20057;-80
2021/08/16 10:05:47;;;;;;;0.00;0.00;;;20.80;99.90;;;;;;5034054;28;20052;-82
2021/08/16 10:08:44;;;;;;;0.00;0.00;;;20.80;99.90;;;;;;5036321;28;20554;-85
2021/08/16 10:11:31;;;;;;;0.00;0.00;;;20.80;99.90;;;;;;5024881;28;20048;-82
2021/08/16 10:14:22;;;;;;;0.00;0.00;;;20.60;99.90;;;;;;5036694;28;20128;-86
2021/08/16 10:17:09;;;;;;;0.00;0.00;;;20.40;99.90;;;;;;5051574;28;20049;-86
2021/08/16 10:19:59;;;;;;;0.00;0.00;;;20.30;99.90;;;;;;5049506;28;20044;-85
2021/08/16 10:22:46;;;;;;;0.00;0.00;;;20.30;99.90;;;;;;5026485;28;20045;-81
2021/08/16 10:25:43;;;;;;;0.00;0.00;;;20.00;99.90;;;;;;5043639;28;20132;-85
2021/08/16 10:28:32;;;;;;;0.00;0.00;;;19.80;99.90;;;;;;5035381;28;20534;-85
2021/08/16 10:31:26;;;;;;;0.00;0.00;;;19.80;99.90;;;;;;5035282;28;20057;-84
2021/08/16 10:34:23;;;;;;;0.00;0.00;;;19.90;99.90;;;;;;5033303;28;20053;-78
2021/08/16 10:37:15;;;;;;;0.00;0.00;;;19.80;99.90;;;;;;5034438;28;20456;-84
2021/08/16 10:40:13;;;;;;;0.00;0.00;;;19.80;99.90;;;;;;5035431;28;20120;-86
2021/08/16 10:43:08;;;;;;;0.00;0.00;;;19.70;99.90;;;;;;5045198;28;20128;-85
2021/08/16 10:45:55;;;;;;;0.00;0.00;;;19.30;99.90;;;;;;5037425;28;20456;-86
2021/08/16 10:48:42;;;;;;;0.00;0.00;;;18.60;99.90;;;;;;5035579;28;20048;-83
2021/08/16 10:51:42;;;;;;;0.00;0.00;;;17.90;99.90;;;;;;5030730;28;20127;-85
2021/08/16 10:54:31;;;;;;;0.00;0.00;;;17.60;99.90;;;;;;5036366;28;20428;-85
2021/08/16 10:57:19;;;;;;;0.00;0.00;;;17.40;99.90;;;;;;5024699;28;20492;-83
2021/08/16 11:00:10;;;;;;;0.00;0.00;;;17.40;99.90;;;;;;5040785;28;20045;-85
2021/08/16 11:02:57;;;;;;;0.00;0.00;;;17.60;99.90;;;;;;5037408;28;20397;-86
2021/08/16 11:05:45;;;;;;;0.00;0.00;;;17.70;99.90;;;;;;5031577;28;20052;-84
2021/08/16 11:08:32;;;;;;;0.00;0.00;;;17.60;99.90;;;;;;5034276;28;20045;-85
2021/08/16 11:11:20;;;;;;;0.00;0.00;;;17.70;99.90;;;;;;5026123;28;20052;-84
2021/08/16 11:14:09;;;;;;;0.00;0.00;;;17.70;99.90;;;;;;5031257;28;20436;-82
2021/08/16 11:16:59;;;;;;;0.00;0.00;;;17.70;99.90;;;;;;5031631;28;20045;-82
2021/08/16 11:19:48;;;;;;;0.00;0.00;;;17.60;99.90;;;;;;5045392;28;20045;-79
2021/08/16 11:22:35;;;;;;;0.00;0.00;;;17.60;99.90;;;;;;5023292;28;20045;-84
2021/08/16 11:25:22;;;;;;;0.00;0.00;;;17.70;99.90;;;;;;5044591;28;21361;-84
2021/08/16 11:28:10;;;;;;;0.00;0.00;;;18.00;99.90;;;;;;5033863;28;20041;-84
2021/08/16 11:31:03;;;;;;;0.00;0.00;;;18.00;99.90;;;;;;5023775;28;20045;-84
2021/08/16 11:34:02;;;;;;;0.00;0.00;;;17.90;99.90;;;;;;5027777;28;20096;-84
2021/08/16 11:36:49;;;;;;;0.00;0.00;;;18.00;99.90;;;;;;5025256;28;20493;-85
2021/08/16 11:39:36;;;;;;;0.00;0.00;;;18.00;99.90;;;;;;5025629;28;20104;-82
2021/08/16 11:42:24;;;;;;;0.00;0.00;;;18.10;99.90;;;;;;5046579;28;20048;-78
2021/08/16 11:45:16;;;;;;;0.00;0.00;;;18.20;99.90;;;;;;5033678;28;20045;-86
2021/08/16 11:48:04;;;;;;;0.00;0.00;;;18.40;99.90;;;;;;5025873;28;20037;-85
2021/08/16 11:50:57;;;;;;;0.00;0.00;;;18.50;99.90;;;;;;5043159;28;20041;-84
2021/08/16 11:53:46;;;;;;;0.00;0.00;;;18.50;99.90;;;;;;5033038;28;20132;-85
2021/08/16 11:56:34;;;;;;;0.00;0.00;;;18.40;99.90;;;;;;5034503;28;20393;-82
2021/08/16 11:59:22;;;;;;;0.00;0.00;;;18.30;99.90;;;;;;5032286;28;20128;-79
2021/08/16 12:02:09;;;;;;;0.00;0.00;;;18.20;99.90;;;;;;5035505;28;20041;-85
2021/08/16 12:04:58;;;;;;;0.00;0.00;;;18.10;99.90;;;;;;5036779;28;20516;-85
2021/08/16 12:07:47;;;;;;;0.00;0.00;;;17.90;99.90;;;;;;5035902;28;20124;-85
2021/08/16 12:10:42;;;;;;;0.00;0.00;;;17.80;99.90;;;;;;5041421;28;20088;-84
2021/08/16 12:13:29;;;;;;;0.00;0.00;;;17.80;99.90;;;;;;5032866;28;20174;-83
2021/08/16 12:16:28;;;;;;;0.00;0.00;;;17.60;99.90;;;;;;5035808;28;20086;-83
2021/08/16 12:19:17;;;;;;;0.00;0.00;;;17.80;99.90;;;;;;5044933;28;20044;-84
2021/08/16 12:22:06;;;;;;;0.00;0.00;;;17.80;99.90;;;;;;5041301;28;20300;-82
2021/08/16 12:25:03;;;;;;;0.00;0.00;;;18.00;99.90;;;;;;5032525;28;20132;-85
2021/08/16 12:27:54;;;;;;;0.00;0.00;;;18.00;99.90;;;;;;5029685;28;20044;-83
2021/08/16 12:30:42;;;;;;;0.00;0.00;;;18.10;99.90;;;;;;5046275;28;20044;-82
2021/08/16 12:33:29;;;;;;;0.00;0.00;;;18.30;99.90;;;;;;5038990;28;20041;-78
2021/08/16 12:36:21;;;;;;;0.00;0.00;;;18.30;99.90;;;;;;5030370;28;20650;-85
2021/08/16 12:39:10;;;;;;;0.00;0.00;;;18.40;99.90;;;;;;5033494;28;20120;-83
2021/08/16 12:42:16;;;;;;;0.00;0.00;;;18.40;99.90;;;;;;5037534;28;20053;-85
2021/08/16 12:45:06;;;;;;;0.00;0.00;;;18.50;99.90;;;;;;5034349;28;20120;-85
2021/08/16 12:47:59;;;;;;;0.00;0.00;;;18.50;99.90;;;;;;5039123;28;20106;-85
2021/08/16 12:50:46;;;;;;;0.00;0.00;;;18.50;99.90;;;;;;5033994;28;20518;-85
2021/08/16 12:53:33;;;;;;;0.00;0.00;;;18.30;99.90;;;;;;5044518;28;20139;-85
2021/08/16 13:01:39;;;;;;;0.00;0.00;;;18.30;99.90;;;;;;5051433;28;20041;-88
2021/08/16 13:04:28;;;;;;;0.00;0.00;;;18.30;99.90;;;;;;5049014;28;20045;-89
2021/08/16 13:07:15;;;;;;;0.00;0.00;;;18.50;99.90;;;;;;5049441;28;20393;-88
2021/08/16 13:10:03;;;;;;;0.00;0.00;;;18.40;99.90;;;;;;5046891;28;20291;-88
2021/08/16 13:12:51;;;;;;;0.00;0.00;;;18.40;99.90;;;;;;5041189;28;20597;-88
2021/08/16 13:15:39;;;;;;;0.00;0.00;;;18.50;99.90;;;;;;5034090;28;20085;-88
2021/08/16 13:18:27;;;;;;;0.00;0.00;;;18.50;99.90;;;;;;5034568;28;20049;-88
2021/08/16 13:21:14;;;;;;;0.00;0.00;;;18.50;99.90;;;;;;5048600;28;20338;-88
2021/08/16 13:24:01;;;;;;;0.00;0.00;;;18.50;99.90;;;;;;5035117;28;20040;-88
2021/08/16 13:26:48;;;;;;;0.00;0.00;;;18.50;99.90;;;;;;5037330;28;20043;-88
2021/08/16 13:29:35;;;;;;;0.00;0.00;;;18.20;99.90;;;;;;5045747;28;20063;-88
2021/08/16 13:32:23;;;;;;;0.00;0.00;;;18.20;99.90;;;;;;5048401;28;20128;-88
2021/08/16 13:35:11;;;;;;;0.00;0.00;;;18.00;99.90;;;;;;5050525;28;20044;-88
2021/08/16 13:37:58;;;;;;;0.00;0.00;;;17.80;99.90;;;;;;5045091;28;20045;-87
2021/08/16 13:40:45;;;;;;;0.00;0.00;;;17.50;99.90;;;;;;5025053;28;20045;-87
2021/08/16 13:43:32;;;;;;;0.00;0.00;;;17.40;99.90;;;;;;5040672;28;20416;-87
2021/08/16 13:46:20;;;;;;;0.00;0.00;;;17.40;99.90;;;;;;5041803;28;20047;-88
2021/08/16 13:49:07;;;;;;;0.00;0.00;;;17.20;99.90;;;;;;5044594;28;20146;-88
2021/08/16 13:51:55;;;;;;;0.00;0.00;;;17.00;99.90;;;;;;5044246;28;20048;-90
2021/08/16 13:54:42;;;;;;;0.00;0.00;;;17.00;99.90;;;;;;5029951;28;20124;-88
2021/08/16 13:57:30;;;;;;;0.10;0.10;;;16.30;99.90;;;;;;5045844;28;20319;-88
2021/08/16 14:00:17;;;;;;;0.00;0.00;;;15.50;99.90;;;;;;5043928;28;20167;-88
2021/08/16 14:03:04;;;;;;;0.00;0.00;;;14.90;99.90;;;;;;5037484;28;20041;-86
2021/08/16 14:05:52;;;;;;;0.00;0.00;;;14.60;99.90;;;;;;5033721;28;20108;-84
2021/08/16 14:08:40;;;;;;;0.00;0.00;;;14.10;99.90;;;;;;5046828;28;20110;-88
2021/08/16 14:11:27;;;;;;;0.00;0.00;;;14.20;99.90;;;;;;5033659;28;20041;-88
2021/08/16 14:14:15;;;;;;;0.00;0.00;;;14.10;99.90;;;;;;5040575;28;20464;-89
2021/08/16 14:17:03;;;;;;;0.00;0.00;;;14.10;99.90;;;;;;5026159;28;20055;-87
2021/08/16 14:19:50;;;;;;;0.00;0.00;;;14.20;99.90;;;;;;5027701;28;20127;-88
2021/08/16 14:22:37;;;;;;;0.00;0.00;;;14.20;99.90;;;;;;5027344;28;20099;-88
2021/08/16 14:25:26;;;;;;;0.00;0.00;;;14.40;99.90;;;;;;5035854;28;20045;-88
2021/08/16 14:28:13;;;;;;;0.00;0.00;;;14.40;99.90;;;;;;5030296;28;20048;-88
2021/08/16 14:31:00;;;;;;;0.00;0.00;;;14.40;99.90;;;;;;5029256;28;20095;-88
2021/08/16 14:33:47;;;;;;;0.00;0.00;;;14.50;99.90;;;;;;5048783;28;20041;-89
2021/08/16 14:36:34;;;;;;;0.00;0.00;;;14.60;99.90;;;;;;5028559;28;20534;-87
2021/08/16 14:39:22;;;;;;;0.00;0.00;;;14.70;99.90;;;;;;5044343;28;20056;-87
2021/08/16 14:42:10;;;;;;;0.00;0.00;;;14.70;99.90;;;;;;5029716;28;20034;-88